FW2344 Weather Reports


Display with metric or nautical units.
time (UTC)temp
F
wind
direction
speed
MPH
gust
MPH
rain 1hr
in
rain 24hr
in
rain mn
in
humidity
%
barometer
mb
20210924031551 64 138 0.0 0.0 0.00 1.07 1.07 97 1015.6
20210924030033 64 138 0.0 2.0 0.04 1.07 1.07 97 1015.6
20210924024525 64 220 0.0 1.0 0.05 1.07 1.07 97 1015.4
20210924023024 63 91 0.0 1.0 0.05 1.07 1.07 96 1015.8
20210924021522 64 223 0.0 2.0 0.09 1.07 1.07 96 1015.9
20210924020018 64 153 1.0 3.0 0.08 1.03 1.03 96 1015.7
20210924014534 64 226 0.0 3.0 0.74 1.02 1.02 96 1015.6
20210924013005 65 46 0.0 3.0 0.89 1.02 1.02 95 1015.5
20210924011850 65 335 0.0 4.0 0.88 0.98 0.98 94 1015.1
20210924010200 67 338 2.0 5.0 0.85 0.95 0.95 93 1014.6
20210924004705 70 334 0.0 2.0 0.18 0.28 0.28 92 1014.4
20210924003126 74 225 2.0 14.0 0.02 0.12 0.12 92 1014.4
20210924001615 74 195 6.0 11.0 0.00 0.10 0.10 91 1012.8
20210924000046 74 64 4.0 12.0 0.00 0.10 0.10 92 1013.1
20210923234544 74 87 3.0 10.0 0.00 0.10 0.10 93 1013.1
20210923233035 73 302 2.0 9.0 0.01 0.10 0.10 93 1013.2
20210923231617 73 239 1.0 6.0 0.01 0.10 0.10 93 1013.4
20210923230051 73 141 4.0 12.0 0.01 0.10 0.10 93 1013.4
20210923224545 73 245 1.0 8.0 0.01 0.10 0.10 92 1013.4
20210923223105 74 82 2.0 11.0 0.00 0.09 0.09 92 1013.7
20210923221524 73 198 1.0 9.0 0.02 0.09 0.09 92 1014.2
20210923220056 73 14 4.0 12.0 0.02 0.09 0.09 92 1013.7
20210923213056 74 98 2.0 10.0 0.02 0.09 0.09 91 1013.4
20210923211529 74 125 3.0 13.0 0.00 0.07 0.07 89 1013.1
20210923210030 75 127 5.0 14.0 0.00 0.07 0.07 88 1012.9
20210923204536 75 56 5.0 13.0 0.00 0.07 0.07 88 1013.1
20210923203029 76 115 5.0 15.0 0.00 0.07 0.07 85 1013.1
20210923201600 77 328 2.0 12.0 0.00 0.07 0.07 83 1013.1
20210923200018 77 96 5.0 16.0 0.00 0.07 0.07 82 1012.9
20210923194514 77 132 6.0 12.0 0.00 0.07 0.07 82 1013.1
20210923193001 77 208 2.0 13.0 0.00 0.07 0.07 82 1013.3
20210923191622 77 64 4.0 11.0 0.00 0.07 0.07 80 1013.5
20210923190125 78 190 7.0 15.0 0.00 0.07 0.07 79 1013.6
20210923184708 78 188 5.0 15.0 0.00 0.07 0.07 79 1013.8
20210923183113 78 200 4.0 13.0 0.00 0.07 0.07 80 1013.8
20210923181720 78 41 5.0 12.0 0.00 0.07 0.07 81 1013.9
20210923180103 78 70 3.0 12.0 0.00 0.07 0.07 82 1014.3
20210923174613 77 219 3.0 11.0 0.00 0.07 0.07 84 1014.4
20210923173110 77 135 5.0 15.0 0.00 0.07 0.07 85 1014.3
20210923171601 76 226 3.0 9.0 0.00 0.07 0.07 87 1014.4
20210923170056 76 164 5.0 13.0 0.00 0.07 0.07 85 1014.6
20210923164610 76 259 4.0 14.0 0.00 0.07 0.07 88 1014.6
20210923163031 75 35 5.0 14.0 0.02 0.07 0.07 89 1014.3
20210923161551 75 181 2.0 9.0 0.07 0.07 0.07 91 1014.4
20210923160047 74 86 3.0 9.0 0.07 0.07 0.07 92 1014.7
20210923154522 73 150 2.0 6.0 0.07 0.07 0.07 92 1015.0
20210923153035 74 212 4.0 9.0 0.05 0.05 0.05 88 1015.1
20210923151530 77 113 5.0 19.0 0.00 0.00 0.00 80 1015.1
20210923150017 78 58 8.0 17.0 0.00 0.00 0.00 78 1015.0
20210923144510 79 167 5.0 14.0 0.00 0.00 0.00 78 1014.7
20210923143021 79 90 3.0 16.0 0.00 0.00 0.00 80 1015.0
20210923141625 78 203 6.0 15.0 0.00 0.00 0.00 79 1015.1
20210923140145 78 163 4.0 13.0 0.00 0.00 0.00 81 1015.1
20210923134648 77 112 5.0 16.0 0.00 0.00 0.00 82 1015.3
20210923133202 77 227 2.0 11.0 0.00 0.00 0.00 84 1015.3
20210923131638 76 230 3.0 13.0 0.00 0.00 0.00 84 1015.2
20210923130115 75 100 4.0 14.0 0.00 0.00 0.00 85 1015.2
20210923124649 75 171 5.0 14.0 0.00 0.00 0.00 85 1015.1
20210923123052 74 141 4.0 11.0 0.00 0.00 0.00 87 1015.1
20210923121535 74 125 5.0 16.0 0.00 0.00 0.00 87 1015.1
20210923120111 74 209 5.0 14.0 0.00 0.00 0.00 87 1015.3
20210923114522 74 120 5.0 16.0 0.00 0.00 0.00 88 1015.3
20210923113020 73 91 3.0 12.0 0.00 0.00 0.00 88 1015.2
20210923111511 73 356 4.0 18.0 0.00 0.00 0.00 88 1015.1
20210923110005 73 150 4.0 15.0 0.00 0.00 0.00 88 1015.2
20210923104506 73 98 4.0 11.0 0.00 0.00 0.00 88 1015.0
20210923103130 73 224 2.0 10.0 0.00 0.00 0.00 87 1014.9
20210923101623 73 50 4.0 14.0 0.00 0.00 0.00 88 1015.1
20210923100235 73 155 3.0 12.0 0.00 0.00 0.00 88 1015.1
20210923094627 73 122 3.0 13.0 0.00 0.01 0.00 88 1015.2
20210923093047 73 91 5.0 12.0 0.00 0.01 0.00 88 1015.2
20210923091602 73 77 3.0 11.0 0.00 0.01 0.00 89 1015.3
20210923090127 73 252 4.0 10.0 0.00 0.01 0.00 88 1015.3
20210923084634 73 217 3.0 11.0 0.00 0.01 0.00 88 1015.5
20210923083038 73 42 4.0 10.0 0.00 0.01 0.00 88 1015.8
20210923081544 73 172 3.0 7.0 0.00 0.01 0.00 88 1015.8
20210923080033 73 325 1.0 12.0 0.00 0.01 0.00 88 1016.0
20210923074528 73 80 5.0 12.0 0.00 0.01 0.00 88 1016.1
20210923073038 73 240 2.0 16.0 0.00 0.01 0.00 88 1016.3
20210923071523 73 21 2.0 14.0 0.00 0.01 0.00 88 1016.4
20210923070023 73 269 3.0 10.0 0.00 0.01 0.00 88 1016.5
20210923064517 73 198 1.0 7.0 0.00 0.01 0.00 88 1016.4
20210923063013 73 217 3.0 14.0 0.00 0.01 0.00 88 1016.5
20210923061512 73 168 3.0 12.0 0.00 0.01 0.00 88 1016.6
20210923060039 73 65 3.0 10.0 0.00 0.01 0.00 88 1016.7
20210923054506 73 141 3.0 7.0 0.00 0.02 0.00 89 1016.8
20210923053002 73 149 3.0 11.0 0.00 0.02 0.00 89 1016.9
20210923051626 73 253 3.0 9.0 0.00 0.02 0.00 89 1016.9
20210923050130 72 124 1.0 6.0 0.00 0.02 0.00 89 1016.9
20210923044658 72 262 2.0 9.0 0.00 0.13 0.00 89 1017.0
20210923043151 73 117 2.0 9.0 0.00 0.13 0.00 89 1017.0
20210923041642 73 195 3.0 8.0 0.00 0.13 0.00 88 1017.1
20210923040208 73 195 2.0 12.0 0.00 0.13 0.00 88 1017.2
20210923034601 73 96 2.0 8.0 0.00 0.13 0.13 88 1017.2
20210923033050 73 91 2.0 8.0 0.00 0.13 0.13 87 1017.0